createdAt,value
2022-08-24T00:02:02.092Z,26.88
2022-08-24T00:04:32.083Z,25.15
2022-08-24T00:07:00.422Z,27.60
2022-08-24T00:09:28.221Z,27.17
2022-08-24T00:11:57.558Z,26.55
2022-08-24T00:14:25.518Z,27.30
2022-08-24T00:16:54.120Z,26.73
2022-08-24T00:19:22.138Z,27.02
2022-08-24T00:21:50.567Z,25.55
2022-08-24T00:24:18.444Z,25.77
2022-08-24T00:26:47.504Z,27.33
2022-08-24T00:29:19.181Z,25.67
2022-08-24T00:34:40.540Z,28.23
2022-08-24T00:37:13.878Z,28.35
2022-08-24T00:39:42.050Z,28.65
2022-08-24T00:42:10.010Z,25.90
2022-08-24T00:44:39.178Z,27.60
2022-08-24T00:47:15.082Z,27.35
2022-08-24T00:49:46.953Z,28.45
2022-08-24T00:52:19.512Z,28.98
2022-08-24T00:54:51.462Z,28.48
2022-08-24T00:57:22.355Z,27.80
2022-08-24T00:59:56.648Z,27.58
2022-08-24T01:02:30.306Z,28.65
2022-08-24T01:05:01.575Z,28.33
2022-08-24T01:07:32.737Z,28.73
2022-08-24T01:10:04.013Z,26.65
2022-08-24T01:12:34.245Z,25.75
2022-08-24T01:15:07.569Z,29.10
2022-08-24T01:17:55.334Z,26.17
2022-08-24T01:20:26.312Z,28.48
2022-08-24T01:23:03.216Z,26.80
2022-08-24T01:25:34.404Z,27.42
2022-08-24T01:28:07.071Z,27.05
2022-08-24T01:30:36.420Z,28.08
2022-08-24T01:33:08.369Z,27.73
2022-08-24T01:35:38.471Z,27.95
2022-08-24T01:38:11.789Z,29.83
2022-08-24T01:40:45.147Z,30.20
2022-08-24T01:43:15.214Z,33.97
2022-08-24T01:45:44.003Z,31.83
2022-08-24T01:48:13.777Z,31.65
2022-08-24T01:50:41.649Z,32.30
2022-08-24T01:53:11.014Z,32.50
2022-08-24T01:55:39.045Z,32.25
2022-08-24T01:58:08.953Z,32.78
2022-08-24T02:00:37.666Z,32.78
2022-08-24T02:03:06.036Z,30.60
2022-08-24T02:05:34.581Z,31.33
2022-08-24T02:08:02.598Z,31.13
2022-08-24T02:10:30.974Z,32.15
2022-08-24T02:12:59.957Z,32.50
2022-08-24T02:15:31.852Z,31.65
2022-08-24T02:18:01.135Z,33.90
2022-08-24T02:20:30.336Z,32.35
2022-08-24T02:22:59.096Z,32.42
2022-08-24T02:25:30.572Z,32.30
2022-08-24T02:27:59.467Z,32.83
2022-08-24T02:30:29.875Z,32.35
2022-08-24T02:32:59.390Z,33.35
2022-08-24T02:35:31.052Z,31.35
2022-08-24T02:37:59.715Z,33.45
2022-08-24T02:40:29.262Z,31.55
2022-08-24T02:42:57.557Z,31.20
2022-08-24T02:45:26.114Z,30.73
2022-08-24T02:47:55.480Z,30.63
2022-08-24T02:50:25.225Z,33.28
2022-08-24T02:52:54.317Z,33.13
2022-08-24T02:55:22.513Z,34.17
2022-08-24T02:57:52.999Z,35.30
2022-08-24T03:00:22.725Z,34.10
2022-08-24T03:02:56.140Z,34.17
2022-08-24T03:05:26.162Z,35.78
2022-08-24T03:07:54.390Z,33.58
2022-08-24T03:10:23.288Z,35.85
2022-08-24T03:12:51.739Z,34.78
2022-08-24T03:15:22.690Z,31.85
2022-08-24T03:17:51.645Z,32.30
2022-08-24T03:20:23.298Z,31.77
2022-08-24T03:22:52.107Z,31.00
2022-08-24T03:25:24.696Z,33.60
2022-08-24T03:27:53.085Z,32.03
2022-08-24T03:30:21.346Z,32.35
2022-08-24T03:32:51.181Z,31.20
2022-08-24T03:35:22.355Z,35.35
2022-08-24T03:37:50.892Z,34.58
2022-08-24T03:40:23.156Z,31.42
2022-08-24T03:42:56.279Z,34.00
2022-08-24T03:45:24.668Z,31.95
2022-08-24T03:47:53.271Z,33.88
2022-08-24T03:50:24.001Z,34.28
2022-08-24T03:52:52.973Z,32.08
2022-08-24T03:55:21.026Z,33.50
2022-08-24T03:57:48.953Z,33.35
2022-08-24T04:00:17.618Z,34.60
2022-08-24T04:02:54.640Z,33.80
2022-08-24T04:05:26.571Z,32.10
2022-08-24T04:07:54.598Z,33.20
2022-08-24T04:10:22.471Z,32.10
2022-08-24T04:12:50.329Z,32.60
2022-08-24T04:15:24.389Z,37.70
2022-08-24T04:17:52.304Z,39.53
2022-08-24T04:20:20.285Z,38.70
2022-08-24T04:22:49.482Z,36.47
2022-08-24T04:25:20.678Z,35.63
2022-08-24T04:27:52.212Z,38.92
2022-08-24T04:30:20.225Z,36.22
2022-08-24T04:33:15.501Z,32.88
2022-08-24T04:35:48.172Z,34.33
2022-08-24T04:38:19.833Z,34.00
2022-08-24T04:41:06.197Z,31.88
2022-08-24T04:43:35.731Z,31.70
2022-08-24T04:46:06.667Z,31.65
2022-08-24T04:48:35.089Z,32.45
2022-08-24T04:51:04.118Z,33.85
2022-08-24T04:53:33.912Z,31.48
2022-08-24T04:56:02.161Z,30.73
2022-08-24T04:58:32.036Z,28.95
2022-08-24T05:01:00.867Z,28.80
2022-08-24T05:03:28.790Z,27.48
2022-08-24T05:05:56.676Z,27.20
2022-08-24T05:08:24.509Z,27.98
2022-08-24T05:10:53.971Z,26.15
2022-08-24T05:13:22.155Z,26.10
2022-08-24T05:15:50.287Z,26.83
2022-08-24T05:18:19.221Z,28.48
2022-08-24T05:20:48.626Z,28.85
2022-08-24T05:23:16.521Z,24.77
2022-08-24T05:25:44.356Z,27.10
2022-08-24T05:28:13.487Z,26.00
2022-08-24T05:30:42.840Z,27.02
2022-08-24T05:33:11.578Z,26.05
2022-08-24T05:35:44.384Z,27.42
2022-08-24T05:38:13.910Z,27.13
2022-08-24T05:40:42.997Z,25.45
2022-08-24T05:43:11.221Z,26.83
2022-08-24T05:45:44.394Z,25.48
2022-08-24T05:48:12.844Z,25.08
2022-08-24T05:51:16.171Z,26.13
2022-08-24T05:53:54.124Z,25.30
2022-08-24T05:56:23.822Z,25.38
2022-08-24T05:58:51.620Z,27.33
2022-08-24T06:01:22.741Z,26.05
2022-08-24T06:03:53.351Z,23.13
2022-08-24T06:06:23.309Z,24.60
2022-08-24T06:08:55.092Z,25.27
2022-08-24T06:11:30.072Z,23.40
2022-08-24T06:14:01.906Z,26.45
2022-08-24T06:16:36.099Z,25.80
2022-08-24T06:19:06.508Z,25.42
2022-08-24T06:21:34.798Z,25.67
2022-08-24T06:24:02.926Z,24.00
2022-08-24T06:26:49.111Z,25.35
2022-08-24T06:29:18.288Z,26.15
2022-08-24T06:32:13.994Z,25.98
2022-08-24T06:34:42.281Z,27.30
2022-08-24T06:37:11.250Z,27.17
2022-08-24T06:39:39.836Z,26.02
2022-08-24T06:42:07.848Z,25.20
2022-08-24T06:44:36.014Z,26.42
2022-08-24T06:47:15.410Z,24.90
2022-08-24T06:49:43.666Z,26.05
2022-08-24T06:52:12.190Z,25.55
2022-08-24T06:54:40.534Z,25.70
2022-08-24T06:57:08.700Z,27.92
2022-08-24T06:59:36.574Z,26.10
2022-08-24T07:02:05.057Z,24.92
2022-08-24T07:04:36.353Z,24.42
2022-08-24T07:07:24.405Z,27.95
2022-08-24T07:09:52.289Z,28.45
2022-08-24T07:12:20.769Z,30.95
2022-08-24T07:14:48.720Z,30.63
2022-08-24T07:17:16.573Z,26.60
2022-08-24T07:19:46.471Z,27.25
2022-08-24T07:22:18.236Z,28.35
2022-08-24T07:24:46.588Z,29.92
2022-08-24T07:27:15.269Z,30.77
2022-08-24T07:29:52.821Z,29.13
2022-08-24T07:32:30.065Z,29.92
2022-08-24T07:34:59.892Z,25.80
2022-08-24T07:37:40.705Z,26.00
2022-08-24T07:40:10.314Z,25.38
2022-08-24T07:42:39.864Z,26.90
2022-08-24T07:45:08.514Z,25.35
2022-08-24T07:47:40.488Z,22.95
2022-08-24T07:50:25.840Z,23.67
2022-08-24T07:52:53.800Z,24.13
2022-08-24T07:55:21.759Z,19.13
2022-08-24T07:57:50.970Z,19.58
2022-08-24T08:00:20.526Z,16.42
2022-08-24T08:02:54.968Z,17.25
2022-08-24T08:05:25.774Z,15.27
2022-08-24T08:07:55.121Z,16.70
2022-08-24T08:10:23.611Z,14.20
2022-08-24T08:12:53.603Z,15.20
2022-08-24T08:15:21.592Z,14.80
2022-08-24T08:18:01.329Z,15.02
2022-08-24T08:20:30.785Z,15.50
2022-08-24T08:23:16.710Z,15.00
2022-08-24T08:26:05.129Z,14.93
2022-08-24T08:28:59.839Z,14.93
2022-08-24T08:31:28.559Z,15.80
2022-08-24T08:33:57.079Z,13.80
2022-08-24T08:36:27.538Z,14.43
2022-08-24T08:38:55.660Z,14.73
2022-08-24T08:42:02.899Z,15.43
2022-08-24T08:44:50.875Z,14.35
2022-08-24T08:47:34.531Z,15.15
2022-08-24T08:50:14.060Z,14.13
2022-08-24T08:53:18.522Z,14.60
2022-08-24T08:55:58.340Z,16.08
2022-08-24T08:58:46.765Z,16.38
2022-08-24T09:01:44.244Z,17.70
2022-08-24T09:04:51.537Z,17.67
2022-08-24T09:07:43.479Z,18.45
2022-08-24T09:10:31.812Z,18.63
2022-08-24T09:13:17.901Z,20.45
2022-08-24T09:16:14.461Z,20.25
2022-08-24T09:19:00.873Z,17.75
2022-08-24T09:22:01.358Z,16.70
2022-08-24T09:24:55.880Z,17.20
2022-08-24T09:28:01.922Z,17.65
2022-08-24T09:30:46.992Z,17.02
2022-08-24T09:33:22.191Z,16.73
2022-08-24T09:36:10.120Z,14.15
2022-08-24T09:39:03.019Z,14.32
2022-08-24T09:42:15.238Z,13.13
2022-08-24T09:45:25.958Z,13.52
2022-08-24T09:48:20.114Z,13.77
2022-08-24T09:51:22.650Z,12.48
2022-08-24T09:54:35.030Z,11.90
2022-08-24T09:57:34.168Z,14.45
2022-08-24T10:00:19.060Z,12.52
2022-08-24T10:02:59.286Z,11.93
2022-08-24T10:05:36.706Z,12.95
2022-08-24T10:08:15.783Z,12.02
2022-08-24T10:10:53.030Z,13.77
2022-08-24T10:13:32.437Z,12.00
2022-08-24T10:16:21.347Z,11.57
2022-08-24T10:19:04.495Z,11.30
2022-08-24T10:21:46.803Z,12.60
2022-08-24T10:24:31.412Z,13.23
2022-08-24T10:27:09.426Z,13.40
2022-08-24T10:30:01.946Z,12.18
2022-08-24T10:32:48.879Z,12.45
2022-08-24T10:35:23.767Z,12.13
2022-08-24T10:38:31.662Z,10.07
2022-08-24T10:41:26.417Z,11.33
2022-08-24T10:44:17.215Z,8.77
2022-08-24T10:46:53.517Z,11.90
2022-08-24T10:50:18.009Z,12.70
2022-08-24T10:53:14.477Z,13.20
2022-08-24T10:55:43.420Z,15.07
2022-08-24T10:58:38.768Z,14.70
2022-08-24T11:01:20.312Z,13.57
2022-08-24T11:03:54.682Z,13.40
2022-08-24T11:06:25.168Z,12.90
2022-08-24T11:08:58.513Z,13.27
2022-08-24T11:11:32.745Z,10.97
2022-08-24T11:14:03.803Z,11.93
2022-08-24T11:16:37.804Z,12.10
2022-08-24T11:19:10.816Z,12.10
2022-08-24T11:21:44.102Z,11.53
2022-08-24T11:24:29.072Z,14.30
2022-08-24T11:27:00.152Z,11.73
2022-08-24T11:29:31.606Z,12.60
2022-08-24T11:32:00.592Z,12.82
2022-08-24T11:34:36.553Z,12.05
2022-08-24T11:37:05.888Z,13.38
2022-08-24T11:39:37.365Z,14.60
2022-08-24T11:42:17.421Z,12.50
2022-08-24T11:44:54.850Z,13.07
2022-08-24T11:47:47.171Z,14.15
2022-08-24T11:50:26.463Z,14.27
2022-08-24T11:53:15.161Z,13.32
2022-08-24T11:56:00.138Z,14.00
2022-08-24T11:58:39.992Z,14.30
2022-08-24T12:01:16.791Z,13.32
2022-08-24T12:03:53.843Z,12.30
2022-08-24T12:06:35.323Z,13.40
2022-08-24T12:09:10.301Z,14.40
2022-08-24T12:11:47.335Z,12.60
2022-08-24T12:14:23.396Z,12.77
2022-08-24T12:16:56.313Z,13.45
2022-08-24T12:19:29.728Z,12.63
2022-08-24T12:22:01.726Z,13.97
2022-08-24T12:24:34.544Z,11.93
2022-08-24T12:27:07.905Z,13.02
2022-08-24T12:29:39.593Z,12.52
2022-08-24T12:32:11.773Z,12.20
2022-08-24T12:34:50.144Z,13.30
2022-08-24T12:37:23.171Z,14.07
2022-08-24T12:39:59.084Z,13.50
2022-08-24T12:42:35.234Z,13.48
2022-08-24T12:45:06.240Z,13.18
2022-08-24T12:47:39.176Z,12.98
2022-08-24T12:50:12.969Z,12.15
2022-08-24T12:53:04.933Z,12.43
2022-08-24T12:56:17.483Z,11.32
2022-08-24T12:59:16.072Z,11.23
2022-08-24T13:01:48.856Z,10.23
2022-08-24T13:04:32.572Z,11.87
2022-08-24T13:07:06.819Z,12.50
2022-08-24T13:09:38.325Z,12.15
2022-08-24T13:12:57.066Z,11.13
2022-08-24T13:16:03.439Z,13.20
2022-08-24T13:19:05.344Z,12.75
2022-08-24T13:21:45.656Z,12.43
2022-08-24T13:24:54.114Z,11.35
2022-08-24T13:28:02.444Z,13.48
2022-08-24T13:30:51.126Z,10.30
2022-08-24T13:33:21.424Z,10.90
2022-08-24T13:36:02.188Z,11.20
2022-08-24T13:39:02.006Z,10.98
2022-08-24T13:42:01.784Z,10.88
2022-08-24T13:44:54.779Z,12.27
2022-08-24T13:47:35.273Z,12.35
2022-08-24T13:50:11.958Z,11.18
2022-08-24T13:52:51.438Z,10.60
2022-08-24T13:55:36.028Z,11.90
2022-08-24T13:58:35.670Z,11.57
2022-08-24T14:01:19.358Z,12.63
2022-08-24T14:04:17.504Z,11.73
2022-08-24T14:06:56.946Z,12.30
2022-08-24T14:09:42.102Z,10.57
2022-08-24T14:12:34.686Z,10.95
2022-08-24T14:15:14.876Z,12.85
2022-08-24T14:17:55.340Z,11.93
2022-08-24T14:20:58.265Z,11.95
2022-08-24T14:23:35.848Z,11.73
2022-08-24T14:26:49.800Z,11.10
2022-08-24T14:29:30.368Z,12.07
2022-08-24T14:32:35.893Z,10.48
2022-08-24T14:35:20.720Z,10.82
2022-08-24T14:38:02.416Z,10.07
2022-08-24T14:40:37.039Z,10.73
2022-08-24T14:43:30.081Z,11.50
2022-08-24T14:46:10.082Z,10.00
2022-08-24T14:48:49.368Z,11.68
2022-08-24T14:51:39.870Z,11.60
2022-08-24T14:54:23.299Z,12.13
2022-08-24T14:57:11.755Z,11.43
2022-08-24T14:59:55.399Z,11.50
2022-08-24T15:03:11.997Z,10.98
2022-08-24T15:06:03.842Z,11.63
2022-08-24T15:08:44.332Z,10.43
2022-08-24T15:11:18.390Z,10.05
2022-08-24T15:13:52.471Z,11.77
2022-08-24T15:16:26.698Z,11.15
2022-08-24T15:19:05.351Z,12.02
2022-08-24T15:21:48.485Z,12.73
2022-08-24T15:24:28.246Z,11.85
2022-08-24T15:27:11.057Z,11.35
2022-08-24T15:29:49.442Z,10.30
2022-08-24T15:32:18.958Z,12.27
2022-08-24T15:34:51.197Z,13.17
2022-08-24T15:37:29.102Z,11.55
2022-08-24T15:39:57.496Z,10.45
2022-08-24T15:42:29.489Z,11.95
2022-08-24T15:45:02.429Z,15.35
2022-08-24T15:47:33.639Z,12.35
2022-08-24T15:50:04.239Z,13.40
2022-08-24T15:52:52.987Z,11.15
2022-08-24T15:55:32.906Z,10.82
2022-08-24T15:58:15.536Z,11.15
2022-08-24T16:01:01.638Z,13.20
2022-08-24T16:03:46.859Z,12.45
2022-08-24T16:06:24.189Z,12.85
2022-08-24T16:09:05.072Z,11.75
2022-08-24T16:11:38.407Z,15.10
2022-08-24T16:14:14.128Z,13.18
2022-08-24T16:16:46.538Z,11.52
2022-08-24T16:19:27.490Z,13.40
2022-08-24T16:22:00.961Z,13.35
2022-08-24T16:24:33.386Z,13.18
2022-08-24T16:27:10.473Z,14.43
2022-08-24T16:29:50.313Z,12.35
2022-08-24T16:32:22.618Z,11.75
2022-08-24T16:35:17.918Z,13.75
2022-08-24T16:37:46.209Z,12.90
2022-08-24T16:40:14.266Z,13.38
2022-08-24T16:42:42.555Z,11.98
2022-08-24T16:45:14.996Z,12.27
2022-08-24T16:47:47.573Z,12.65
2022-08-24T16:50:17.992Z,13.40
2022-08-24T16:52:47.235Z,12.90
2022-08-24T16:55:15.590Z,12.10
2022-08-24T16:57:44.488Z,11.18
2022-08-24T17:00:17.264Z,12.57
2022-08-24T17:02:48.232Z,12.43
2022-08-24T17:05:17.917Z,11.77
2022-08-24T17:07:46.301Z,12.00
2022-08-24T17:10:17.178Z,12.05
2022-08-24T17:12:45.377Z,12.10
2022-08-24T17:15:16.307Z,11.63
2022-08-24T17:17:51.062Z,11.00
2022-08-24T17:20:20.815Z,11.32
2022-08-24T17:22:48.645Z,10.85
2022-08-24T17:25:16.802Z,11.38
2022-08-24T17:27:45.354Z,12.07
2022-08-24T17:30:16.918Z,11.82
2022-08-24T17:32:45.507Z,11.48
2022-08-24T17:35:15.046Z,12.55
2022-08-24T17:37:44.415Z,12.05
2022-08-24T17:40:15.207Z,11.75
2022-08-24T17:42:51.212Z,12.18
2022-08-24T17:45:23.956Z,13.88
2022-08-24T17:47:53.769Z,12.77
2022-08-24T17:50:24.723Z,13.25
2022-08-24T17:52:59.289Z,12.93
2022-08-24T17:55:29.217Z,13.05
2022-08-24T17:57:58.063Z,14.57
2022-08-24T18:00:27.664Z,13.45
2022-08-24T18:02:55.996Z,18.45
2022-08-24T18:05:24.472Z,13.65
2022-08-24T18:07:55.158Z,12.98
2022-08-24T18:10:27.977Z,12.90
2022-08-24T18:12:55.981Z,13.32
2022-08-24T18:15:36.019Z,13.90
2022-08-24T18:18:17.273Z,13.23
2022-08-24T18:20:47.161Z,12.60
2022-08-24T18:23:17.489Z,13.75
2022-08-24T18:25:53.854Z,13.98
2022-08-24T18:28:24.039Z,14.15
2022-08-24T18:30:52.090Z,14.50
2022-08-24T18:33:22.354Z,14.25
2022-08-24T18:35:50.583Z,13.88
2022-08-24T18:38:18.416Z,14.02
2022-08-24T18:40:52.359Z,14.90
2022-08-24T18:43:23.513Z,15.80
2022-08-24T18:45:52.977Z,15.65
2022-08-24T18:48:22.591Z,16.88
2022-08-24T18:50:51.078Z,16.08
2022-08-24T18:53:20.060Z,19.38
2022-08-24T18:55:48.927Z,18.85
2022-08-24T18:58:16.816Z,19.25
2022-08-24T19:00:45.301Z,17.88
2022-08-24T19:03:18.743Z,19.17
2022-08-24T19:05:48.028Z,18.75
2022-08-24T19:08:15.832Z,17.52
2022-08-24T19:10:43.607Z,18.40
2022-08-24T19:13:15.947Z,19.65
2022-08-24T19:15:46.659Z,17.92
2022-08-24T19:18:16.643Z,18.45
2022-08-24T19:20:49.055Z,16.60
2022-08-24T19:23:22.848Z,17.35
2022-08-24T19:25:51.694Z,17.48
2022-08-24T19:28:20.781Z,17.10
2022-08-24T19:30:49.658Z,17.55
2022-08-24T19:33:25.548Z,18.73
2022-08-24T19:35:54.354Z,18.17
2022-08-24T19:38:26.200Z,19.35
2022-08-24T19:40:57.249Z,16.60
2022-08-24T19:43:26.229Z,16.63
2022-08-24T19:46:03.331Z,17.85
2022-08-24T19:48:31.985Z,17.85
2022-08-24T19:51:02.111Z,18.67
2022-08-24T19:53:33.703Z,16.10
2022-08-24T19:56:01.782Z,16.48
2022-08-24T19:58:32.138Z,15.57
2022-08-24T20:01:09.427Z,16.42
2022-08-24T20:03:37.310Z,17.50
2022-08-24T20:06:05.634Z,18.45
2022-08-24T20:08:34.969Z,17.52
2022-08-24T20:11:03.070Z,17.73
2022-08-24T20:13:30.838Z,18.10
2022-08-24T20:15:59.180Z,20.70
2022-08-24T20:18:31.069Z,21.40
2022-08-24T20:20:59.607Z,21.88
2022-08-24T20:23:29.377Z,18.13
2022-08-24T20:26:00.384Z,17.60
2022-08-24T20:28:37.857Z,16.30
2022-08-24T20:31:06.567Z,17.80
2022-08-24T20:33:35.404Z,18.17
2022-08-24T20:36:05.529Z,18.77
2022-08-24T20:38:34.922Z,18.95
2022-08-24T20:41:04.192Z,18.25
2022-08-24T20:43:31.958Z,18.08
2022-08-24T20:46:00.011Z,18.17
2022-08-24T20:48:31.005Z,17.15
2022-08-24T20:51:00.284Z,17.42
2022-08-24T20:53:28.410Z,17.17
2022-08-24T20:55:57.626Z,19.30
2022-08-24T20:58:26.924Z,19.75
2022-08-24T21:00:54.827Z,21.77
2022-08-24T21:03:22.775Z,21.60
2022-08-24T21:05:52.390Z,20.45
2022-08-24T21:08:20.590Z,20.20
2022-08-24T21:10:48.425Z,20.40
2022-08-24T21:13:16.230Z,18.45
2022-08-24T21:15:46.334Z,19.75
2022-08-24T21:18:14.660Z,17.55
2022-08-24T21:20:42.670Z,18.50
2022-08-24T21:23:22.605Z,18.15
2022-08-24T21:25:50.505Z,19.40
2022-08-24T21:28:19.969Z,16.60
2022-08-24T21:30:49.481Z,17.00
2022-08-24T21:33:35.611Z,16.35
2022-08-24T21:36:05.062Z,15.88
2022-08-24T21:38:35.839Z,17.23
2022-08-24T21:41:04.172Z,16.75
2022-08-24T21:43:32.782Z,17.55
2022-08-24T21:46:01.945Z,15.90
2022-08-24T21:48:29.877Z,16.67
2022-08-24T21:50:57.673Z,17.45
2022-08-24T21:53:27.477Z,17.95
2022-08-24T21:55:56.906Z,17.83
2022-08-24T21:58:26.289Z,19.42
2022-08-24T22:00:54.244Z,16.92
2022-08-24T22:03:37.390Z,15.77
2022-08-24T22:06:08.584Z,16.40
2022-08-24T22:08:37.061Z,15.85
2022-08-24T22:11:05.298Z,15.88
2022-08-24T22:13:34.203Z,15.77
2022-08-24T22:16:04.159Z,18.58
2022-08-24T22:18:35.404Z,16.88
2022-08-24T22:21:08.070Z,18.80
2022-08-24T22:23:36.487Z,17.85
2022-08-24T22:26:05.193Z,17.38
2022-08-24T22:28:34.024Z,18.95
2022-08-24T22:31:02.305Z,17.90
2022-08-24T22:33:31.262Z,18.45
2022-08-24T22:36:00.825Z,18.00
2022-08-24T22:38:29.344Z,18.20
2022-08-24T22:40:57.192Z,17.20
2022-08-24T22:43:45.075Z,17.60
2022-08-24T22:46:13.246Z,18.75
2022-08-24T22:48:41.602Z,18.60
2022-08-24T22:51:11.230Z,17.17
2022-08-24T22:53:39.740Z,18.27
2022-08-24T22:56:15.437Z,18.85
2022-08-24T22:58:43.402Z,20.13
2022-08-24T23:01:11.275Z,19.70
2022-08-24T23:03:39.391Z,19.10
2022-08-24T23:06:07.691Z,18.75
2022-08-24T23:08:36.786Z,20.17
2022-08-24T23:11:04.726Z,18.15
2022-08-24T23:13:32.610Z,21.05
2022-08-24T23:16:01.335Z,18.52
2022-08-24T23:18:47.633Z,21.42
2022-08-24T23:21:16.265Z,20.63
2022-08-24T23:23:45.425Z,21.67
2022-08-24T23:26:18.185Z,23.70
2022-08-24T23:28:47.446Z,24.35
2022-08-24T23:31:20.321Z,22.55
2022-08-24T23:33:49.380Z,21.55
2022-08-24T23:36:21.069Z,24.10
2022-08-24T23:38:52.498Z,23.08
2022-08-24T23:41:22.428Z,23.70
2022-08-24T23:43:50.401Z,21.85
2022-08-24T23:46:18.653Z,25.67
2022-08-24T23:48:55.435Z,21.05
2022-08-24T23:51:24.875Z,21.40
2022-08-24T23:53:54.448Z,22.13
2022-08-24T23:56:26.144Z,22.98
2022-08-24T23:58:54.235Z,21.42
